createdAt,value
2023-02-11T00:00:51.811Z,100760.50
2023-02-11T00:01:53.704Z,100757.00
2023-02-11T00:02:55.438Z,100762.91
2023-02-11T00:03:58.847Z,100758.75
2023-02-11T00:05:04.209Z,100762.16
2023-02-11T00:06:11.233Z,100764.75
2023-02-11T00:07:12.906Z,100755.53
2023-02-11T00:08:17.096Z,100766.63
2023-02-11T00:09:18.820Z,100769.91
2023-02-11T00:10:20.553Z,100764.75
2023-02-11T00:11:25.621Z,100762.16
2023-02-11T00:12:27.322Z,100769.97
2023-02-11T00:13:30.019Z,100764.88
2023-02-11T00:14:31.992Z,100769.22
2023-02-11T00:15:33.701Z,100767.59
2023-02-11T00:16:35.513Z,100766.91
2023-02-11T00:17:37.370Z,100754.22
2023-02-11T00:18:39.602Z,100770.03
2023-02-11T00:19:41.315Z,100769.41
2023-02-11T00:20:43.468Z,100761.81
2023-02-11T00:21:45.170Z,100757.72
2023-02-11T00:22:46.895Z,100766.69
2023-02-11T00:23:49.307Z,100780.31
2023-02-11T00:24:51.018Z,100768.38
2023-02-11T00:25:53.030Z,100781.91
2023-02-11T00:26:54.817Z,100778.50
2023-02-11T00:27:56.522Z,100788.72
2023-02-11T00:28:59.180Z,100777.72
2023-02-11T00:30:02.363Z,100766.81
2023-02-11T00:31:04.335Z,100775.22
2023-02-11T00:32:08.999Z,100759.78
2023-02-11T00:33:10.750Z,100770.94
2023-02-11T00:34:12.470Z,100770.13
2023-02-11T00:35:14.191Z,100769.28
2023-02-11T00:36:23.145Z,100772.56
2023-02-11T00:37:24.874Z,100770.03
2023-02-11T00:38:26.565Z,100773.47
2023-02-11T00:39:28.674Z,100772.63
2023-02-11T00:40:30.411Z,100778.56
2023-02-11T00:41:32.170Z,100766.63
2023-02-11T00:42:35.742Z,100764.38
2023-02-11T00:43:37.457Z,100783.72
2023-02-11T00:44:39.247Z,100775.06
2023-02-11T00:45:40.942Z,100773.59
2023-02-11T00:46:42.958Z,100764.13
2023-02-11T00:47:44.742Z,100775.81
2023-02-11T00:48:46.449Z,100772.97
2023-02-11T00:49:48.162Z,100764.81
2023-02-11T00:50:49.860Z,100765.72
2023-02-11T00:51:51.611Z,100766.34
2023-02-11T00:52:53.311Z,100762.63
2023-02-11T00:53:55.405Z,100764.13
2023-02-11T00:54:57.235Z,100770.88
2023-02-11T00:55:59.193Z,100763.97
2023-02-11T00:57:01.176Z,100752.25
2023-02-11T00:58:03.006Z,100760.41
2023-02-11T00:59:04.709Z,100766.41
2023-02-11T01:00:07.514Z,100760.50
2023-02-11T01:01:09.273Z,100762.38
2023-02-11T01:02:11.050Z,100749.59
2023-02-11T01:03:12.764Z,100757.41
2023-02-11T01:04:14.454Z,100755.97
2023-02-11T01:05:16.204Z,100744.31
2023-02-11T01:06:18.179Z,100757.56
2023-02-11T01:07:19.938Z,100759.09
2023-02-11T01:08:21.689Z,100742.75
2023-02-11T01:09:23.404Z,100752.09
2023-02-11T01:10:25.677Z,100743.66
2023-02-11T01:11:27.427Z,100754.41
2023-02-11T01:12:29.123Z,100751.84
2023-02-11T01:13:32.578Z,100746.66
2023-02-11T01:14:34.347Z,100741.66
2023-02-11T01:15:36.130Z,100739.66
2023-02-11T01:16:37.892Z,100743.19
2023-02-11T01:17:39.646Z,100740.81
2023-02-11T01:18:44.417Z,100743.91
2023-02-11T01:19:46.293Z,100748.50
2023-02-11T01:20:47.981Z,100738.56
2023-02-11T01:21:49.703Z,100737.47
2023-02-11T01:22:51.436Z,100745.84
2023-02-11T01:23:53.213Z,100737.31
2023-02-11T01:24:54.943Z,100731.31
2023-02-11T01:25:56.895Z,100741.19
2023-02-11T01:26:58.713Z,100743.84
2023-02-11T01:28:00.458Z,100734.50
2023-02-11T01:29:02.244Z,100739.84
2023-02-11T01:30:05.854Z,100733.97
2023-02-11T01:31:07.754Z,100727.97
2023-02-11T01:32:09.627Z,100729.78
2023-02-11T01:33:11.584Z,100734.66
2023-02-11T01:34:13.463Z,100730.56
2023-02-11T01:35:15.267Z,100695.56
2023-02-11T01:36:17.029Z,100725.81
2023-02-11T01:37:18.723Z,100690.06
2023-02-11T01:38:26.184Z,100729.19
2023-02-11T01:39:27.991Z,100723.00
2023-02-11T01:40:29.733Z,100721.97
2023-02-11T01:41:31.593Z,100712.09
2023-02-11T01:42:33.578Z,100713.81
2023-02-11T01:43:48.195Z,100724.75
2023-02-11T01:44:51.553Z,100723.84
2023-02-11T01:46:01.292Z,100719.81
2023-02-11T01:47:06.160Z,100733.28
2023-02-11T01:48:10.500Z,100720.72
2023-02-11T01:49:27.080Z,100712.91
2023-02-11T01:50:29.119Z,100722.09
2023-02-11T01:51:40.237Z,100733.84
2023-02-11T01:52:42.730Z,100725.38
2023-02-11T01:54:05.089Z,100730.69
2023-02-11T01:55:29.718Z,100725.59
2023-02-11T01:56:50.207Z,100717.09
2023-02-11T01:57:57.084Z,100720.34
2023-02-11T01:59:07.928Z,100710.53
2023-02-11T02:00:21.064Z,100717.59
2023-02-11T02:01:26.920Z,100715.91
2023-02-11T02:02:37.581Z,100723.50
2023-02-11T02:03:43.952Z,100725.19
2023-02-11T02:05:21.521Z,100720.34
2023-02-11T02:06:30.592Z,100723.31
2023-02-11T02:07:42.926Z,100719.97
2023-02-11T02:09:02.905Z,100721.56
2023-02-11T02:10:11.595Z,100721.50
2023-02-11T02:11:13.530Z,100719.06
2023-02-11T02:12:15.273Z,100719.16
2023-02-11T02:13:17.503Z,100719.28
2023-02-11T02:14:19.638Z,100719.50
2023-02-11T02:15:25.733Z,100717.69
2023-02-11T02:16:34.306Z,100712.19
2023-02-11T02:17:52.801Z,100702.13
2023-02-11T02:19:39.508Z,100712.25
2023-02-11T02:21:10.660Z,100707.94
2023-02-11T02:22:30.721Z,100712.31
2023-02-11T02:23:41.504Z,100715.25
2023-02-11T02:24:56.786Z,100710.47
2023-02-11T02:25:58.471Z,100715.50
2023-02-11T02:27:27.370Z,100696.09
2023-02-11T02:28:58.109Z,100706.34
2023-02-11T02:30:16.703Z,100712.28
2023-02-11T02:31:37.516Z,100711.38
2023-02-11T02:33:22.297Z,100715.88
2023-02-11T02:34:35.646Z,100716.94
2023-02-11T02:35:58.671Z,100722.59
2023-02-11T02:37:45.052Z,100725.88
2023-02-11T02:38:58.598Z,100724.97
2023-02-11T02:40:08.076Z,100710.59
2023-02-11T02:41:16.954Z,100716.53
2023-02-11T02:42:20.323Z,100710.53
2023-02-11T02:43:23.866Z,100719.88
2023-02-11T02:44:26.090Z,100721.19
2023-02-11T02:45:28.108Z,100726.06
2023-02-11T02:46:32.905Z,100726.00
2023-02-11T02:47:34.662Z,100728.59
2023-02-11T02:48:36.413Z,100726.19
2023-02-11T02:49:38.116Z,100730.44
2023-02-11T02:50:39.887Z,100729.50
2023-02-11T02:52:07.273Z,100733.03
2023-02-11T02:53:32.604Z,100717.47
2023-02-11T02:55:00.165Z,100729.00
2023-02-11T02:56:40.468Z,100733.25
2023-02-11T02:57:53.177Z,100728.16
2023-02-11T02:59:09.696Z,100732.53
2023-02-11T03:00:27.773Z,100732.53
2023-02-11T03:01:53.288Z,100734.34
2023-02-11T03:03:17.518Z,100733.38
2023-02-11T03:04:47.003Z,100733.38
2023-02-11T03:05:53.368Z,100732.66
2023-02-11T03:07:11.891Z,100722.34
2023-02-11T03:08:40.873Z,100728.28
2023-02-11T03:10:10.732Z,100729.06
2023-02-11T03:11:15.408Z,100734.16
2023-02-11T03:12:17.844Z,100726.72
2023-02-11T03:13:26.783Z,100736.84
2023-02-11T03:14:30.776Z,100737.69
2023-02-11T03:15:37.714Z,100721.72
2023-02-11T03:16:39.839Z,100732.59
2023-02-11T03:17:47.646Z,100721.84
2023-02-11T03:19:02.176Z,100718.44
2023-02-11T03:20:06.356Z,100704.06
2023-02-11T03:21:10.358Z,100722.69
2023-02-11T03:22:20.085Z,100729.47
2023-02-11T03:23:33.052Z,100733.84
2023-02-11T03:24:38.472Z,100720.19
2023-02-11T03:25:53.095Z,100724.31
2023-02-11T03:26:58.307Z,100726.09
2023-02-11T03:28:12.694Z,100727.00
2023-02-11T03:29:28.387Z,100729.66
2023-02-11T03:30:40.383Z,100731.78
2023-02-11T03:31:53.612Z,100708.97
2023-02-11T03:33:05.904Z,100717.88
2023-02-11T03:34:15.823Z,100716.63
2023-02-11T03:35:23.266Z,100725.91
2023-02-11T03:36:46.159Z,100731.13
2023-02-11T03:38:08.275Z,100716.03
2023-02-11T03:39:13.392Z,100728.34
2023-02-11T03:40:32.670Z,100737.06
2023-02-11T03:41:35.697Z,100719.84
2023-02-11T03:42:46.253Z,100730.34
2023-02-11T03:43:52.417Z,100709.47
2023-02-11T03:45:00.941Z,100725.44
2023-02-11T03:46:03.927Z,100728.00
2023-02-11T03:47:09.539Z,100717.97
2023-02-11T03:48:39.342Z,100724.03
2023-02-11T03:49:43.728Z,100730.00
2023-02-11T03:50:48.600Z,100735.09
2023-02-11T03:51:53.164Z,100732.41
2023-02-11T03:52:56.956Z,100732.47
2023-02-11T03:54:02.175Z,100740.06
2023-02-11T03:55:11.319Z,100740.00
2023-02-11T03:56:19.727Z,100743.34
2023-02-11T03:57:21.538Z,100741.66
2023-02-11T03:58:23.310Z,100726.00
2023-02-11T03:59:25.468Z,100734.03
2023-02-11T04:00:39.780Z,100740.88
2023-02-11T04:01:41.524Z,100736.44
2023-02-11T04:02:44.382Z,100737.41
2023-02-11T04:03:46.097Z,100719.09
2023-02-11T04:04:47.920Z,100734.31
2023-02-11T04:05:49.998Z,100739.25
2023-02-11T04:06:51.933Z,100725.06
2023-02-11T04:07:53.697Z,100735.94
2023-02-11T04:08:55.397Z,100729.97
2023-02-11T04:09:57.100Z,100729.84
2023-02-11T04:10:59.023Z,100730.69
2023-02-11T04:12:00.803Z,100739.31
2023-02-11T04:13:02.758Z,100738.66
2023-02-11T04:14:04.487Z,100724.41
2023-02-11T04:15:07.003Z,100733.31
2023-02-11T04:16:08.704Z,100743.38
2023-02-11T04:17:10.821Z,100729.91
2023-02-11T04:18:12.551Z,100742.44
2023-02-11T04:19:14.305Z,100724.00
2023-02-11T04:20:16.129Z,100731.41
2023-02-11T04:21:17.857Z,100739.44
2023-02-11T04:22:19.600Z,100728.47
2023-02-11T04:23:21.299Z,100732.53
2023-02-11T04:24:23.166Z,100727.59
2023-02-11T04:25:26.074Z,100726.56
2023-02-11T04:26:27.791Z,100730.78
2023-02-11T04:27:30.051Z,100721.22
2023-02-11T04:28:31.876Z,100701.25
2023-02-11T04:29:33.711Z,100722.31
2023-02-11T04:30:35.415Z,100724.22
2023-02-11T04:31:37.291Z,100725.06
2023-02-11T04:32:39.110Z,100723.28
2023-02-11T04:33:40.814Z,100724.91
2023-02-11T04:34:42.567Z,100718.84
2023-02-11T04:35:44.393Z,100725.59
2023-02-11T04:36:46.111Z,100722.97
2023-02-11T04:37:47.848Z,100714.41
2023-02-11T04:38:49.568Z,100716.84
2023-02-11T04:39:51.274Z,100708.41
2023-02-11T04:40:53.011Z,100718.53
2023-02-11T04:41:54.777Z,100709.25
2023-02-11T04:42:56.457Z,100711.66
2023-02-11T04:43:58.299Z,100723.63
2023-02-11T04:45:00.044Z,100706.78
2023-02-11T04:46:01.823Z,100717.81
2023-02-11T04:47:03.659Z,100703.53
2023-02-11T04:48:05.523Z,100710.09
2023-02-11T04:49:07.272Z,100716.34
2023-02-11T04:50:09.329Z,100713.09
2023-02-11T04:51:11.723Z,100713.22
2023-02-11T04:52:13.432Z,100700.66
2023-02-11T04:53:15.129Z,100710.78
2023-02-11T04:54:17.549Z,100700.78
2023-02-11T04:55:19.368Z,100705.03
2023-02-11T04:56:21.098Z,100705.81
2023-02-11T04:57:22.866Z,100703.97
2023-02-11T04:58:24.571Z,100705.69
2023-02-11T04:59:26.292Z,100705.44
2023-02-11T05:00:27.987Z,100699.44
2023-02-11T05:01:29.754Z,100697.59
2023-02-11T05:02:32.119Z,100705.06
2023-02-11T05:03:33.880Z,100705.06
2023-02-11T05:04:35.600Z,100707.56
2023-02-11T05:05:42.170Z,100699.78
2023-02-11T05:06:43.888Z,100704.03
2023-02-11T05:07:45.659Z,100701.47
2023-02-11T05:08:47.463Z,100709.19
2023-02-11T05:09:49.182Z,100697.22
2023-02-11T05:10:50.877Z,100692.97
2023-02-11T05:11:53.704Z,100704.72
2023-02-11T05:12:56.072Z,100691.22
2023-02-11T05:13:57.953Z,100706.25
2023-02-11T05:14:59.653Z,100703.75
2023-02-11T05:16:01.463Z,100696.78
2023-02-11T05:17:03.317Z,100693.25
2023-02-11T05:18:05.259Z,100709.47
2023-02-11T05:19:06.984Z,100711.03
2023-02-11T05:20:09.396Z,100700.72
2023-02-11T05:21:15.957Z,100707.56
2023-02-11T05:22:17.699Z,100692.84
2023-02-11T05:23:19.464Z,100685.63
2023-02-11T05:24:21.244Z,100716.63
2023-02-11T05:25:22.969Z,100691.44
2023-02-11T05:26:25.195Z,100702.56
2023-02-11T05:27:26.911Z,100698.13
2023-02-11T05:28:29.138Z,100711.38
2023-02-11T05:29:31.010Z,100713.78
2023-02-11T05:30:33.081Z,100702.81
2023-02-11T05:31:34.824Z,100705.16
2023-02-11T05:32:36.577Z,100709.59
2023-02-11T05:33:38.533Z,100720.44
2023-02-11T05:34:40.261Z,100696.94
2023-02-11T05:35:42.005Z,100717.91
2023-02-11T05:36:43.773Z,100703.66
2023-02-11T05:37:45.564Z,100719.53
2023-02-11T05:38:47.317Z,100726.22
2023-02-11T05:39:49.081Z,100718.50
2023-02-11T05:40:50.770Z,100718.44
2023-02-11T05:41:52.517Z,100726.94
2023-02-11T05:42:54.387Z,100717.47
2023-02-11T05:43:56.137Z,100727.56
2023-02-11T05:44:58.074Z,100716.50
2023-02-11T05:45:59.989Z,100706.28
2023-02-11T05:47:01.832Z,100720.56
2023-02-11T05:48:03.579Z,100723.78
2023-02-11T05:49:05.765Z,100724.41
2023-02-11T05:50:07.723Z,100727.16
2023-02-11T05:51:09.728Z,100722.34
2023-02-11T05:52:11.477Z,100731.19
2023-02-11T05:53:13.378Z,100730.28
2023-02-11T05:54:15.523Z,100723.91
2023-02-11T05:55:17.317Z,100732.41
2023-02-11T05:56:19.055Z,100704.47
2023-02-11T05:57:20.785Z,100732.03
2023-02-11T05:58:22.559Z,100728.31
2023-02-11T05:59:24.303Z,100707.22
2023-02-11T06:00:26.241Z,100706.97
2023-02-11T06:01:28.151Z,100722.88
2023-02-11T06:02:29.911Z,100715.09
2023-02-11T06:03:31.780Z,100727.41
2023-02-11T06:04:34.466Z,100726.63
2023-02-11T06:05:36.204Z,100701.38
2023-02-11T06:06:37.979Z,100713.09
2023-02-11T06:07:39.735Z,100727.19
2023-02-11T06:08:41.785Z,100722.63
2023-02-11T06:09:43.614Z,100722.41
2023-02-11T06:10:45.955Z,100715.75
2023-02-11T06:11:47.657Z,100720.44
2023-02-11T06:12:49.403Z,100709.41
2023-02-11T06:13:51.497Z,100727.56
2023-02-11T06:14:53.790Z,100729.91
2023-02-11T06:15:57.463Z,100721.34
2023-02-11T06:16:59.338Z,100720.06
2023-02-11T06:18:01.049Z,100724.22
2023-02-11T06:19:02.891Z,100702.19
2023-02-11T06:20:08.769Z,100726.34
2023-02-11T06:21:12.082Z,100720.19
2023-02-11T06:22:13.878Z,100718.19
2023-02-11T06:23:15.652Z,100718.88
2023-02-11T06:24:28.518Z,100717.81
2023-02-11T06:25:39.247Z,100729.53
2023-02-11T06:26:41.172Z,100704.84
2023-02-11T06:27:42.959Z,100719.97
2023-02-11T06:28:45.155Z,100719.69
2023-02-11T06:29:47.272Z,100720.22
2023-02-11T06:30:49.114Z,100714.88
2023-02-11T06:31:50.972Z,100716.41
2023-02-11T06:32:52.824Z,100717.00
2023-02-11T06:33:55.240Z,100711.56
2023-02-11T06:34:57.012Z,100718.03
2023-02-11T06:35:58.771Z,100707.69
2023-02-11T06:37:00.586Z,100706.72
2023-02-11T06:38:02.488Z,100708.25
2023-02-11T06:39:04.597Z,100712.06
2023-02-11T06:40:07.122Z,100704.38
2023-02-11T06:41:16.651Z,100709.94
2023-02-11T06:42:18.338Z,100718.16
2023-02-11T06:43:20.185Z,100712.81
2023-02-11T06:44:21.956Z,100708.34
2023-02-11T06:45:23.674Z,100717.38
2023-02-11T06:46:25.775Z,100719.97
2023-02-11T06:47:27.512Z,100702.97
2023-02-11T06:48:29.225Z,100699.16
2023-02-11T06:49:31.036Z,100719.81
2023-02-11T06:50:32.761Z,100710.06
2023-02-11T06:51:34.514Z,100708.09
2023-02-11T06:52:36.314Z,100712.78
2023-02-11T06:53:40.782Z,100723.59
2023-02-11T06:54:42.516Z,100721.84
2023-02-11T06:55:44.322Z,100719.06
2023-02-11T06:56:46.340Z,100717.03
2023-02-11T06:57:48.047Z,100719.13
2023-02-11T06:58:56.730Z,100702.69
2023-02-11T06:59:58.483Z,100716.66
2023-02-11T07:01:00.658Z,100715.72
2023-02-11T07:02:02.492Z,100730.44
2023-02-11T07:03:04.296Z,100716.16
2023-02-11T07:04:06.935Z,100719.94
2023-02-11T07:05:08.932Z,100719.44
2023-02-11T07:06:15.798Z,100718.56
2023-02-11T07:07:17.553Z,100711.72
2023-02-11T07:08:19.254Z,100719.84
2023-02-11T07:09:20.964Z,100717.59
2023-02-11T07:10:22.686Z,100713.91
2023-02-11T07:11:27.735Z,100714.63
2023-02-11T07:12:29.593Z,100708.69
2023-02-11T07:13:31.295Z,100694.81
2023-02-11T07:14:33.017Z,100702.84
2023-02-11T07:15:34.711Z,100699.72
2023-02-11T07:16:37.164Z,100715.91
2023-02-11T07:17:38.888Z,100698.53
2023-02-11T07:18:41.060Z,100710.22
2023-02-11T07:19:42.803Z,100701.47
2023-02-11T07:20:44.535Z,100705.69
2023-02-11T07:21:46.298Z,100706.63
2023-02-11T07:22:48.077Z,100707.75
2023-02-11T07:23:50.054Z,100709.84
2023-02-11T07:24:51.809Z,100702.50
2023-02-11T07:25:53.578Z,100703.66
2023-02-11T07:26:55.293Z,100710.81
2023-02-11T07:27:57.148Z,100707.41
2023-02-11T07:28:58.885Z,100707.19
2023-02-11T07:30:00.618Z,100702.56
2023-02-11T07:31:11.031Z,100706.03
2023-02-11T07:32:14.081Z,100700.22
2023-02-11T07:33:15.808Z,100699.88
2023-02-11T07:34:17.699Z,100693.84
2023-02-11T07:35:19.426Z,100689.13
2023-02-11T07:36:24.327Z,100697.28
2023-02-11T07:37:26.126Z,100693.38
2023-02-11T07:38:28.053Z,100696.78
2023-02-11T07:39:29.849Z,100690.19
2023-02-11T07:40:31.787Z,100692.56
2023-02-11T07:41:37.776Z,100692.88
2023-02-11T07:42:41.741Z,100697.44
2023-02-11T07:43:44.024Z,100698.66
2023-02-11T07:44:49.998Z,100700.16
2023-02-11T07:45:52.365Z,100697.06
2023-02-11T07:46:54.220Z,100701.81
2023-02-11T07:47:56.085Z,100697.50
2023-02-11T07:48:57.841Z,100702.66
2023-02-11T07:49:59.522Z,100704.53
2023-02-11T07:51:17.523Z,100699.63
2023-02-11T07:52:19.300Z,100709.78
2023-02-11T07:53:21.048Z,100695.56
2023-02-11T07:54:22.840Z,100707.31
2023-02-11T07:55:24.580Z,100698.00
2023-02-11T07:56:27.547Z,100695.44
2023-02-11T07:57:29.404Z,100693.19
2023-02-11T07:58:33.155Z,100682.88
2023-02-11T07:59:34.845Z,100686.16
2023-02-11T08:00:36.668Z,100690.91
2023-02-11T08:01:38.750Z,100687.94
2023-02-11T08:02:40.505Z,100690.28
2023-02-11T08:03:42.953Z,100685.34
2023-02-11T08:04:46.951Z,100700.72
2023-02-11T08:05:48.869Z,100692.84
2023-02-11T08:06:52.933Z,100689.78
2023-02-11T08:07:54.908Z,100692.56
2023-02-11T08:08:56.829Z,100693.84
2023-02-11T08:09:58.559Z,100689.66
2023-02-11T08:11:07.628Z,100689.84
2023-02-11T08:12:09.345Z,100683.56
2023-02-11T08:13:11.034Z,100696.47
2023-02-11T08:14:12.841Z,100685.94
2023-02-11T08:15:14.634Z,100685.13
2023-02-11T08:16:42.812Z,100687.16
2023-02-11T08:17:44.540Z,100690.94
2023-02-11T08:18:47.365Z,100670.91
2023-02-11T08:19:49.143Z,100681.22
2023-02-11T08:20:51.083Z,100682.13
2023-02-11T08:21:57.081Z,100680.72
2023-02-11T08:22:59.290Z,100678.50
2023-02-11T08:24:04.342Z,100677.75
2023-02-11T08:25:06.503Z,100667.19
2023-02-11T08:26:12.050Z,100668.03
2023-02-11T08:27:13.769Z,100664.78
2023-02-11T08:28:15.525Z,100661.47
2023-02-11T08:29:17.659Z,100667.00
2023-02-11T08:30:19.603Z,100669.44
2023-02-11T08:31:27.579Z,100658.00
2023-02-11T08:32:29.391Z,100654.06
2023-02-11T08:33:31.127Z,100652.50
2023-02-11T08:34:32.835Z,100648.81
2023-02-11T08:35:35.753Z,100645.94
2023-02-11T08:36:39.436Z,100651.28
2023-02-11T08:37:41.132Z,100632.72
2023-02-11T08:38:43.644Z,100651.69
2023-02-11T08:39:47.388Z,100649.00
2023-02-11T08:40:49.787Z,100646.63
2023-02-11T08:41:54.327Z,100648.31
2023-02-11T08:42:56.038Z,100646.06
2023-02-11T08:43:58.239Z,100641.56
2023-02-11T08:44:59.966Z,100645.28
2023-02-11T08:46:02.683Z,100637.88
2023-02-11T08:47:04.560Z,100645.91
2023-02-11T08:48:06.417Z,100642.59
2023-02-11T08:49:08.172Z,100635.63
2023-02-11T08:50:10.142Z,100640.91
2023-02-11T08:51:24.305Z,100636.63
2023-02-11T08:52:26.048Z,100638.66
2023-02-11T08:53:27.744Z,100635.63
2023-02-11T08:54:30.783Z,100633.16
2023-02-11T08:55:32.576Z,100643.91
2023-02-11T08:56:34.382Z,100634.38
2023-02-11T08:57:36.207Z,100637.25
2023-02-11T08:58:38.339Z,100633.22
2023-02-11T08:59:42.824Z,100631.97
2023-02-11T09:00:45.542Z,100632.75
2023-02-11T09:01:47.938Z,100635.88
2023-02-11T09:02:49.728Z,100638.78
2023-02-11T09:03:52.077Z,100640.63
2023-02-11T09:04:53.848Z,100636.28
2023-02-11T09:05:57.103Z,100631.97
2023-02-11T09:06:58.857Z,100633.22
2023-02-11T09:08:00.563Z,100636.94
2023-02-11T09:09:02.261Z,100630.31
2023-02-11T09:10:04.338Z,100638.06
2023-02-11T09:11:06.125Z,100631.31
2023-02-11T09:12:07.961Z,100637.09
2023-02-11T09:13:10.078Z,100637.69
2023-02-11T09:14:20.993Z,100626.59
2023-02-11T09:15:22.716Z,100634.16
2023-02-11T09:16:28.008Z,100625.50
2023-02-11T09:17:29.749Z,100634.75
2023-02-11T09:18:32.178Z,100632.72
2023-02-11T09:19:33.959Z,100620.19
2023-02-11T09:20:35.684Z,100615.03
2023-02-11T09:21:37.895Z,100629.25
2023-02-11T09:22:39.593Z,100624.91
2023-02-11T09:23:43.833Z,100625.56
2023-02-11T09:24:45.627Z,100615.34
2023-02-11T09:25:47.326Z,100627.44
2023-02-11T09:26:49.735Z,100631.50
2023-02-11T09:27:52.428Z,100625.94
2023-02-11T09:28:54.780Z,100625.94
2023-02-11T09:29:56.524Z,100621.63
2023-02-11T09:30:58.279Z,100619.56
2023-02-11T09:32:00.247Z,100614.16
2023-02-11T09:33:02.212Z,100620.22
2023-02-11T09:34:06.336Z,100612.00
2023-02-11T09:35:08.275Z,100615.00
2023-02-11T09:36:10.296Z,100607.66
2023-02-11T09:37:12.005Z,100598.22
2023-02-11T09:38:13.784Z,100608.75
2023-02-11T09:39:20.389Z,100608.00
2023-02-11T09:40:22.999Z,100593.63
2023-02-11T09:41:24.674Z,100599.34
2023-02-11T09:42:38.854Z,100597.31
2023-02-11T09:43:48.190Z,100594.72
2023-02-11T09:44:50.319Z,100583.53
2023-02-11T09:45:56.087Z,100589.97
2023-02-11T09:47:06.501Z,100591.34
2023-02-11T09:48:20.305Z,100583.59
2023-02-11T09:49:47.321Z,100582.56
2023-02-11T09:50:57.772Z,100572.59
2023-02-11T09:52:06.637Z,100583.34
2023-02-11T09:53:17.315Z,100575.66
2023-02-11T09:54:30.424Z,100574.22
2023-02-11T09:55:39.910Z,100564.75
2023-02-11T09:56:41.691Z,100566.38
2023-02-11T09:57:43.438Z,100563.94
2023-02-11T09:58:45.589Z,100566.41
2023-02-11T09:59:49.414Z,100563.38
2023-02-11T10:00:57.425Z,100552.00
2023-02-11T10:02:12.092Z,100550.53
2023-02-11T10:03:34.909Z,100539.16
2023-02-11T10:05:24.065Z,100544.72
2023-02-11T10:06:38.689Z,100537.22
2023-02-11T10:08:10.109Z,100535.34
2023-02-11T10:09:20.760Z,100519.56
2023-02-11T10:10:50.883Z,100521.78
2023-02-11T10:11:58.440Z,100528.44
2023-02-11T10:13:37.383Z,100517.06
2023-02-11T10:14:47.979Z,100517.91
2023-02-11T10:16:02.013Z,100520.03
2023-02-11T10:17:10.407Z,100514.50
2023-02-11T10:18:18.183Z,100508.25
2023-02-11T10:19:19.840Z,100508.72
2023-02-11T10:20:50.260Z,100496.34
2023-02-11T10:21:59.580Z,100502.75
2023-02-11T10:23:10.676Z,100510.44
2023-02-11T10:24:13.475Z,100509.16
2023-02-11T10:25:23.086Z,100501.38
2023-02-11T10:26:31.008Z,100505.91
2023-02-11T10:27:35.555Z,100502.69
2023-02-11T10:28:39.640Z,100494.59
2023-02-11T10:29:48.358Z,100499.75
2023-02-11T10:31:16.317Z,100488.03
2023-02-11T10:32:49.516Z,100478.22
2023-02-11T10:34:00.367Z,100480.63
2023-02-11T10:35:15.266Z,100466.28
2023-02-11T10:36:19.126Z,100479.91
2023-02-11T10:37:20.861Z,100475.28
2023-02-11T10:38:22.645Z,100465.00
2023-02-11T10:39:27.172Z,100456.13
2023-02-11T10:40:31.688Z,100462.72
2023-02-11T10:41:38.720Z,100474.00
2023-02-11T10:42:44.486Z,100462.50
2023-02-11T10:43:46.182Z,100452.28
2023-02-11T10:45:01.363Z,100454.44
2023-02-11T10:46:04.932Z,100455.38
2023-02-11T10:47:37.653Z,100461.88
2023-02-11T10:48:55.320Z,100459.00
2023-02-11T10:50:03.379Z,100442.69
2023-02-11T10:51:13.447Z,100446.78
2023-02-11T10:52:22.740Z,100442.41
2023-02-11T10:53:24.571Z,100447.19
2023-02-11T10:54:26.282Z,100434.66
2023-02-11T10:55:28.828Z,100417.00
2023-02-11T10:56:33.473Z,100437.00
2023-02-11T10:57:38.352Z,100425.03
2023-02-11T10:58:56.477Z,100421.28
2023-02-11T11:00:30.549Z,100434.97
2023-02-11T11:01:46.930Z,100429.63
2023-02-11T11:02:58.447Z,100432.78
2023-02-11T11:04:00.526Z,100424.22
2023-02-11T11:05:06.797Z,100404.50
2023-02-11T11:06:09.964Z,100426.28
2023-02-11T11:07:30.114Z,100412.00
2023-02-11T11:08:44.507Z,100416.53
2023-02-11T11:09:49.035Z,100414.06
2023-02-11T11:11:07.978Z,100413.88
2023-02-11T11:12:30.966Z,100406.78
2023-02-11T11:13:36.396Z,100411.44
2023-02-11T11:14:38.201Z,100396.94
2023-02-11T11:15:39.950Z,100404.91
2023-02-11T11:16:52.793Z,100399.22
2023-02-11T11:18:21.416Z,100396.81
2023-02-11T11:19:25.607Z,100383.66
2023-02-11T11:20:35.315Z,100388.09
2023-02-11T11:21:40.953Z,100378.66
2023-02-11T11:22:43.880Z,100385.31
2023-02-11T11:23:52.857Z,100379.97
2023-02-11T11:24:56.045Z,100379.16
2023-02-11T11:26:03.781Z,100377.56
2023-02-11T11:27:06.367Z,100372.03
2023-02-11T11:28:22.878Z,100367.06
2023-02-11T11:29:46.125Z,100370.22
2023-02-11T11:30:48.295Z,100362.84
2023-02-11T11:31:57.979Z,100355.84
2023-02-11T11:33:01.196Z,100353.19
2023-02-11T11:34:34.046Z,100352.59
2023-02-11T11:35:35.823Z,100349.56
2023-02-11T11:36:39.869Z,100348.28
2023-02-11T11:37:42.223Z,100350.59
2023-02-11T11:38:48.992Z,100346.97
2023-02-11T11:40:02.854Z,100347.41
2023-02-11T11:41:20.014Z,100349.06
2023-02-11T11:42:26.226Z,100349.25
2023-02-11T11:43:27.965Z,100342.53
2023-02-11T11:44:37.680Z,100341.94
2023-02-11T11:45:39.714Z,100337.84
2023-02-11T11:46:44.298Z,100342.94
2023-02-11T11:47:59.456Z,100341.78
2023-02-11T11:49:33.057Z,100332.16
2023-02-11T11:50:43.615Z,100336.72
2023-02-11T11:51:55.378Z,100325.84
2023-02-11T11:53:04.678Z,100325.88
2023-02-11T11:54:13.609Z,100323.19
2023-02-11T11:55:26.453Z,100314.38
2023-02-11T11:56:32.137Z,100321.53
2023-02-11T11:57:38.746Z,100311.72
2023-02-11T11:58:41.051Z,100306.78
2023-02-11T11:59:42.854Z,100311.69
2023-02-11T12:00:52.358Z,100311.09
2023-02-11T12:02:19.364Z,100311.25
2023-02-11T12:04:03.781Z,100318.41
2023-02-11T12:05:27.133Z,100300.97
2023-02-11T12:06:41.211Z,100305.44
2023-02-11T12:07:54.691Z,100304.78
2023-02-11T12:09:23.224Z,100296.53
2023-02-11T12:10:40.293Z,100304.88
2023-02-11T12:11:48.160Z,100297.97
2023-02-11T12:12:49.814Z,100305.38
2023-02-11T12:14:06.564Z,100293.72
2023-02-11T12:15:26.669Z,100294.75
2023-02-11T12:16:50.137Z,100293.56
2023-02-11T12:17:57.972Z,100287.50
2023-02-11T12:19:27.912Z,100290.59
2023-02-11T12:20:33.391Z,100291.31
2023-02-11T12:21:56.442Z,100289.22
2023-02-11T12:23:07.003Z,100283.66
2023-02-11T12:24:35.245Z,100285.81
2023-02-11T12:25:47.381Z,100281.31
2023-02-11T12:27:10.759Z,100282.88
2023-02-11T12:29:01.183Z,100275.75
2023-02-11T12:30:33.112Z,100271.72
2023-02-11T12:32:19.075Z,100271.13
2023-02-11T12:33:26.369Z,100271.19
2023-02-11T12:34:55.924Z,100269.53
2023-02-11T12:36:32.122Z,100277.91
2023-02-11T12:37:56.524Z,100269.50